createdAt,value
2018-10-11T00:00:20.427Z,0.00
2018-10-11T00:01:20.511Z,0.00
2018-10-11T00:02:19.916Z,0.00
2018-10-11T00:03:19.966Z,0.00
2018-10-11T00:04:19.950Z,0.00
2018-10-11T00:05:20.080Z,0.00
2018-10-11T00:06:19.953Z,0.00
2018-10-11T00:07:19.949Z,0.00
2018-10-11T00:08:19.883Z,0.00
2018-10-11T00:09:19.880Z,0.00
2018-10-11T00:10:21.477Z,0.00
2018-10-11T00:11:21.388Z,0.00
2018-10-11T00:12:21.511Z,0.00
2018-10-11T00:13:21.399Z,0.00
2018-10-11T00:14:21.549Z,0.00
2018-10-11T00:15:21.476Z,0.00
2018-10-11T00:16:21.566Z,0.00
2018-10-11T00:17:21.458Z,0.00
2018-10-11T00:18:21.526Z,0.00
2018-10-11T00:19:21.513Z,0.00
2018-10-11T00:20:21.516Z,0.00
2018-10-11T00:21:21.454Z,0.00
2018-10-11T00:22:21.472Z,0.00
2018-10-11T00:23:19.868Z,0.00
2018-10-11T00:24:21.428Z,0.00
2018-10-11T00:25:19.765Z,0.00
2018-10-11T00:26:19.862Z,0.00
2018-10-11T00:27:21.393Z,0.00
2018-10-11T00:28:19.653Z,0.00
2018-10-11T00:29:19.737Z,0.00
2018-10-11T00:30:19.730Z,0.00
2018-10-11T00:31:19.553Z,0.00
2018-10-11T00:32:19.565Z,0.00
2018-10-11T00:33:19.658Z,0.00
2018-10-11T00:34:19.377Z,0.00
2018-10-11T00:35:19.765Z,0.00
2018-10-11T00:36:19.861Z,0.00
2018-10-11T00:37:19.805Z,0.00
2018-10-11T00:38:19.466Z,0.00
2018-10-11T00:39:19.496Z,0.00
2018-10-11T00:40:19.603Z,0.00
2018-10-11T00:41:19.591Z,0.00
2018-10-11T00:42:19.815Z,0.00
2018-10-11T00:43:19.305Z,0.00
2018-10-11T00:44:20.230Z,0.00
2018-10-11T00:45:19.574Z,0.00
2018-10-11T00:46:19.857Z,0.00
2018-10-11T00:47:19.779Z,0.00
2018-10-11T00:48:20.105Z,0.00
2018-10-11T00:49:19.597Z,0.00
2018-10-11T00:50:19.536Z,0.00
2018-10-11T00:51:19.535Z,0.00
2018-10-11T00:52:19.522Z,0.00
2018-10-11T00:53:19.541Z,0.00
2018-10-11T00:54:19.776Z,0.00
2018-10-11T00:55:19.739Z,0.00
2018-10-11T00:56:19.554Z,0.00
2018-10-11T00:57:19.645Z,0.00
2018-10-11T00:58:19.509Z,0.00
2018-10-11T00:59:19.559Z,0.00
2018-10-11T01:00:19.542Z,0.00
2018-10-11T01:01:19.568Z,0.00
2018-10-11T01:02:19.579Z,0.00
2018-10-11T01:03:19.709Z,0.00
2018-10-11T01:04:19.701Z,0.00
2018-10-11T01:05:19.786Z,0.00
2018-10-11T01:06:19.862Z,0.00
2018-10-11T01:07:19.836Z,0.00
2018-10-11T01:08:19.887Z,0.00
2018-10-11T01:09:19.771Z,0.00
2018-10-11T01:10:19.803Z,0.00
2018-10-11T01:11:19.753Z,0.00
2018-10-11T01:12:19.875Z,0.00
2018-10-11T01:13:19.895Z,0.00
2018-10-11T01:14:19.888Z,0.00
2018-10-11T01:15:20.079Z,0.00
2018-10-11T01:16:19.815Z,0.00
2018-10-11T01:17:19.800Z,0.00
2018-10-11T01:18:21.673Z,0.00
2018-10-11T01:19:19.543Z,0.00
2018-10-11T01:20:19.529Z,0.00
2018-10-11T01:21:19.753Z,0.00
2018-10-11T01:22:20.019Z,0.00
2018-10-11T01:23:19.587Z,0.00
2018-10-11T01:24:19.774Z,0.00
2018-10-11T01:25:19.766Z,0.00
2018-10-11T01:26:19.864Z,0.00
2018-10-11T01:27:19.798Z,0.00
2018-10-11T01:28:20.150Z,0.00
2018-10-11T01:29:19.634Z,0.00
2018-10-11T01:30:19.445Z,0.00
2018-10-11T01:31:19.515Z,0.00
2018-10-11T01:32:19.522Z,0.00
2018-10-11T01:33:19.405Z,0.00
2018-10-11T01:34:19.402Z,0.00
2018-10-11T01:35:18.976Z,0.00
2018-10-11T01:36:19.401Z,0.00
2018-10-11T01:37:19.416Z,0.00
2018-10-11T01:38:19.409Z,0.00
2018-10-11T01:39:20.036Z,0.00
2018-10-11T01:40:19.509Z,0.00
2018-10-11T01:41:19.505Z,0.00
2018-10-11T01:42:20.580Z,0.00
2018-10-11T01:43:19.428Z,0.00
2018-10-11T01:44:19.450Z,0.00
2018-10-11T01:45:19.661Z,0.00
2018-10-11T01:46:19.513Z,0.00
2018-10-11T01:47:19.508Z,0.00
2018-10-11T01:48:19.945Z,0.00
2018-10-11T01:49:20.429Z,0.00
2018-10-11T01:50:19.454Z,0.00
2018-10-11T01:51:19.436Z,0.00
2018-10-11T01:52:19.446Z,0.00
2018-10-11T01:53:19.401Z,0.00
2018-10-11T01:54:19.391Z,0.00
2018-10-11T01:55:19.357Z,0.00
2018-10-11T01:56:19.422Z,0.00
2018-10-11T01:57:19.744Z,0.00
2018-10-11T01:58:19.433Z,0.00
2018-10-11T01:59:19.471Z,0.00
2018-10-11T02:00:19.445Z,0.00
2018-10-11T02:01:19.456Z,0.00
2018-10-11T02:02:19.522Z,0.00
2018-10-11T02:03:19.445Z,0.00
2018-10-11T02:04:19.115Z,0.00
2018-10-11T02:05:17.911Z,0.00
2018-10-11T02:06:19.437Z,0.00
2018-10-11T02:07:19.062Z,0.00
2018-10-11T02:08:19.411Z,0.00
2018-10-11T02:09:19.504Z,0.00
2018-10-11T02:10:19.427Z,0.00
2018-10-11T02:11:19.356Z,0.00
2018-10-11T02:12:19.419Z,0.00
2018-10-11T02:13:19.418Z,0.00
2018-10-11T02:14:19.412Z,0.00
2018-10-11T02:15:19.434Z,0.00
2018-10-11T02:16:19.202Z,0.00
2018-10-11T02:17:19.437Z,0.00
2018-10-11T02:18:19.483Z,0.00
2018-10-11T02:19:19.437Z,0.00
2018-10-11T02:20:19.449Z,0.00
2018-10-11T02:21:19.049Z,0.00
2018-10-11T02:22:19.483Z,0.00
2018-10-11T02:23:19.443Z,0.00
2018-10-11T02:24:19.453Z,0.00
2018-10-11T02:25:21.183Z,0.00
2018-10-11T02:26:19.642Z,0.00
2018-10-11T02:27:19.636Z,0.00
2018-10-11T02:28:19.369Z,0.00
2018-10-11T02:29:19.643Z,0.00
2018-10-11T02:30:19.642Z,0.00
2018-10-11T02:31:19.644Z,0.00
2018-10-11T02:32:19.638Z,0.00
2018-10-11T02:33:19.597Z,0.00
2018-10-11T02:34:19.635Z,0.00
2018-10-11T02:35:19.643Z,0.00
2018-10-11T02:36:19.646Z,0.00
2018-10-11T02:37:19.675Z,0.00
2018-10-11T02:38:19.601Z,0.00
2018-10-11T02:39:19.601Z,0.00
2018-10-11T02:40:19.610Z,0.00
2018-10-11T02:41:19.378Z,0.00
2018-10-11T02:42:19.607Z,0.00
2018-10-11T02:43:19.378Z,0.00
2018-10-11T02:44:20.101Z,0.00
2018-10-11T02:45:19.603Z,0.00
2018-10-11T02:46:19.380Z,0.00
2018-10-11T02:47:19.602Z,0.00
2018-10-11T02:48:19.607Z,0.00
2018-10-11T02:49:19.648Z,0.00
2018-10-11T02:50:19.647Z,0.00
2018-10-11T02:51:19.642Z,0.00
2018-10-11T02:52:19.651Z,0.00
2018-10-11T02:53:19.647Z,0.00
2018-10-11T02:54:19.648Z,0.00
2018-10-11T02:55:19.651Z,0.00
2018-10-11T02:56:19.642Z,0.00
2018-10-11T02:57:19.645Z,0.00
2018-10-11T02:58:20.872Z,0.00
2018-10-11T02:59:19.107Z,0.00
2018-10-11T03:00:19.152Z,0.00
2018-10-11T03:01:21.151Z,0.00
2018-10-11T03:02:21.105Z,0.00
2018-10-11T03:03:20.897Z,0.00
2018-10-11T03:04:21.113Z,0.00
2018-10-11T03:05:19.112Z,0.00
2018-10-11T03:06:19.106Z,0.00
2018-10-11T03:07:20.894Z,0.00
2018-10-11T03:08:21.151Z,0.00
2018-10-11T03:09:20.938Z,0.00
2018-10-11T03:10:20.904Z,0.00
2018-10-11T03:11:19.291Z,0.00
2018-10-11T03:12:20.895Z,0.00
2018-10-11T03:13:21.146Z,0.00
2018-10-11T03:14:20.909Z,0.00
2018-10-11T03:15:21.115Z,0.00
2018-10-11T03:16:19.067Z,0.00
2018-10-11T03:17:20.904Z,0.00
2018-10-11T03:18:19.106Z,0.00
2018-10-11T03:19:19.151Z,0.00
2018-10-11T03:20:19.152Z,0.00
2018-10-11T03:21:19.156Z,0.00
2018-10-11T03:22:19.116Z,0.00
2018-10-11T03:23:18.891Z,0.00
2018-10-11T03:24:19.141Z,0.00
2018-10-11T03:25:18.928Z,0.00
2018-10-11T03:26:19.136Z,0.00
2018-10-11T03:27:19.133Z,0.00
2018-10-11T03:28:19.182Z,0.00
2018-10-11T03:29:19.389Z,0.00
2018-10-11T03:30:21.036Z,0.00
2018-10-11T03:31:18.935Z,0.00
2018-10-11T03:32:19.224Z,0.00
2018-10-11T03:33:19.280Z,0.00
2018-10-11T03:34:19.657Z,0.00
2018-10-11T03:35:19.152Z,0.00
2018-10-11T03:36:19.116Z,0.00
2018-10-11T03:37:19.132Z,0.00
2018-10-11T03:38:19.044Z,0.00
2018-10-11T03:39:19.100Z,0.00
2018-10-11T03:40:19.072Z,0.00
2018-10-11T03:41:19.082Z,0.00
2018-10-11T03:42:19.606Z,0.00
2018-10-11T03:43:19.834Z,0.00
2018-10-11T03:44:19.465Z,0.00
2018-10-11T03:45:19.212Z,0.00
2018-10-11T03:46:19.235Z,0.00
2018-10-11T03:47:19.195Z,0.00
2018-10-11T03:48:19.247Z,0.00
2018-10-11T03:49:19.350Z,0.00
2018-10-11T03:50:19.300Z,0.00
2018-10-11T03:51:19.332Z,0.00
2018-10-11T03:52:19.660Z,0.00
2018-10-11T03:53:19.530Z,0.00
2018-10-11T03:54:19.141Z,0.00
2018-10-11T03:55:19.115Z,0.00
2018-10-11T03:56:19.216Z,0.00
2018-10-11T03:57:19.122Z,0.00
2018-10-11T03:58:19.019Z,0.00
2018-10-11T03:59:19.223Z,0.00
2018-10-11T04:00:19.499Z,0.00
2018-10-11T04:01:19.068Z,0.00
2018-10-11T04:02:19.474Z,0.00
2018-10-11T04:03:19.801Z,0.00
2018-10-11T04:04:19.755Z,0.00
2018-10-11T04:05:18.916Z,0.00
2018-10-11T04:06:19.618Z,0.00
2018-10-11T04:07:19.345Z,0.00
2018-10-11T04:08:18.974Z,0.00
2018-10-11T04:09:18.914Z,0.00
2018-10-11T04:10:18.940Z,0.00
2018-10-11T04:11:19.043Z,0.00
2018-10-11T04:12:18.925Z,0.00
2018-10-11T04:13:18.978Z,0.00
2018-10-11T04:14:19.633Z,0.00
2018-10-11T04:15:18.838Z,0.00
2018-10-11T04:16:19.155Z,0.00
2018-10-11T04:17:19.400Z,0.00
2018-10-11T04:18:18.981Z,0.00
2018-10-11T04:19:19.477Z,0.00
2018-10-11T04:20:19.166Z,0.00
2018-10-11T04:21:19.058Z,0.00
2018-10-11T04:22:19.128Z,0.00
2018-10-11T04:23:19.226Z,0.00
2018-10-11T04:24:19.596Z,0.00
2018-10-11T04:25:18.994Z,0.00
2018-10-11T04:26:19.495Z,0.00
2018-10-11T04:27:19.008Z,0.00
2018-10-11T04:28:19.024Z,0.00
2018-10-11T04:29:19.466Z,0.00
2018-10-11T04:30:18.941Z,0.00
2018-10-11T04:31:19.225Z,0.00
2018-10-11T04:32:18.999Z,0.00
2018-10-11T04:33:18.945Z,0.00
2018-10-11T04:34:18.958Z,0.00
2018-10-11T04:35:19.157Z,0.00
2018-10-11T04:36:19.147Z,0.00
2018-10-11T04:37:19.125Z,0.00
2018-10-11T04:38:19.010Z,0.00
2018-10-11T04:39:18.946Z,0.00
2018-10-11T04:40:18.658Z,0.00
2018-10-11T04:41:19.173Z,0.00
2018-10-11T04:42:19.167Z,0.00
2018-10-11T04:43:19.277Z,0.00
2018-10-11T04:44:18.955Z,0.00
2018-10-11T04:45:17.353Z,0.00
2018-10-11T04:46:18.605Z,0.00
2018-10-11T04:47:18.984Z,0.00
2018-10-11T04:48:19.588Z,0.00
2018-10-11T04:49:19.183Z,0.00
2018-10-11T04:50:19.503Z,0.00
2018-10-11T04:51:18.632Z,0.00
2018-10-11T04:52:18.629Z,0.00
2018-10-11T04:53:18.995Z,0.00
2018-10-11T04:54:19.242Z,0.00
2018-10-11T04:55:19.582Z,0.00
2018-10-11T04:56:18.993Z,0.00
2018-10-11T04:57:19.476Z,0.00
2018-10-11T04:58:19.201Z,0.00
2018-10-11T04:59:19.764Z,0.00
2018-10-11T05:00:18.734Z,0.00
2018-10-11T05:01:17.290Z,0.00
2018-10-11T05:02:18.028Z,0.00
2018-10-11T05:03:17.276Z,0.00
2018-10-11T05:04:17.882Z,0.00
2018-10-11T05:05:17.314Z,0.00
2018-10-11T05:06:18.698Z,0.00
2018-10-11T05:07:18.460Z,0.00
2018-10-11T05:08:18.986Z,0.00
2018-10-11T05:09:18.322Z,0.00
2018-10-11T05:10:17.950Z,0.00
2018-10-11T05:11:18.476Z,0.00
2018-10-11T05:12:19.141Z,0.00
2018-10-11T05:13:18.398Z,0.00
2018-10-11T05:14:18.633Z,0.00
2018-10-11T05:15:18.705Z,0.00
2018-10-11T05:16:19.210Z,0.00
2018-10-11T05:17:18.195Z,0.00
2018-10-11T05:18:18.683Z,0.00
2018-10-11T05:19:18.647Z,0.00
2018-10-11T05:20:18.684Z,4.00
2018-10-11T05:21:18.410Z,0.00
2018-10-11T05:22:17.219Z,0.00
2018-10-11T05:23:18.381Z,4.00
2018-10-11T05:24:19.189Z,4.00
2018-10-11T05:25:18.191Z,4.00
2018-10-11T05:26:18.695Z,4.00
2018-10-11T05:27:18.680Z,8.00
2018-10-11T05:28:18.638Z,8.00
2018-10-11T05:29:20.696Z,8.00
2018-10-11T05:30:18.512Z,8.00
2018-10-11T05:31:18.593Z,12.00
2018-10-11T05:32:20.778Z,12.00
2018-10-11T05:33:18.687Z,20.00
2018-10-11T05:34:18.523Z,20.00
2018-10-11T05:35:18.170Z,24.00
2018-10-11T05:36:18.944Z,28.00
2018-10-11T05:37:22.709Z,28.00
2018-10-11T05:38:18.267Z,36.00
2018-10-11T05:39:18.846Z,40.00
2018-10-11T05:40:17.176Z,44.00
2018-10-11T05:41:18.639Z,48.00
2018-10-11T05:42:20.187Z,60.00
2018-10-11T05:43:19.090Z,64.00
2018-10-11T05:44:19.189Z,72.00
2018-10-11T05:45:18.649Z,80.00
2018-10-11T05:46:18.678Z,88.00
2018-10-11T05:47:18.599Z,96.00
2018-10-11T05:48:19.374Z,104.00
2018-10-11T05:49:19.049Z,112.00
2018-10-11T05:50:20.455Z,120.00
2018-10-11T05:51:18.981Z,136.00
2018-10-11T05:52:18.696Z,144.00
2018-10-11T05:53:17.177Z,156.00
2018-10-11T05:54:19.252Z,168.00
2018-10-11T05:55:18.540Z,180.00
2018-10-11T05:56:19.067Z,192.00
2018-10-11T05:57:18.647Z,200.00
2018-10-11T05:58:18.720Z,212.00
2018-10-11T05:59:18.678Z,228.00
2018-10-11T06:00:18.522Z,240.00
2018-10-11T06:01:18.591Z,252.00
2018-10-11T06:02:20.139Z,268.00
2018-10-11T06:03:18.591Z,280.00
2018-10-11T06:04:18.301Z,296.00
2018-10-11T06:05:19.089Z,308.00
2018-10-11T06:06:17.719Z,320.00
2018-10-11T06:07:18.339Z,332.00
2018-10-11T06:08:18.173Z,348.00
2018-10-11T06:09:18.693Z,360.00
2018-10-11T06:11:51.207Z,396.00
2018-10-11T06:12:51.149Z,408.00
2018-10-11T06:14:44.170Z,436.00
2018-10-11T06:15:44.836Z,448.00
2018-10-11T06:17:40.379Z,472.00
2018-10-11T06:18:38.912Z,488.00
2018-10-11T06:20:33.706Z,516.00
2018-10-11T06:21:34.586Z,528.00
2018-10-11T06:23:28.278Z,548.00
2018-10-11T06:24:28.805Z,564.00
2018-10-11T06:26:22.948Z,588.00
2018-10-11T06:27:23.262Z,600.00
2018-10-11T06:29:17.832Z,620.00
2018-10-11T06:30:17.974Z,632.00
2018-10-11T06:32:12.247Z,652.00
2018-10-11T06:33:12.843Z,664.00
2018-10-11T06:35:07.454Z,688.00
2018-10-11T06:36:09.054Z,696.00
2018-10-11T06:38:02.046Z,720.00
2018-10-11T06:39:01.565Z,732.00
2018-10-11T06:40:02.127Z,744.00
2018-10-11T06:41:02.113Z,752.00
2018-10-11T06:42:02.099Z,764.00
2018-10-11T06:43:02.119Z,772.00
2018-10-11T06:44:01.838Z,784.00
2018-10-11T06:45:02.145Z,792.00
2018-10-11T06:46:02.127Z,800.00
2018-10-11T06:47:01.905Z,808.00
2018-10-11T06:48:01.943Z,824.00
2018-10-11T06:49:02.078Z,832.00
2018-10-11T06:50:02.229Z,840.00
2018-10-11T06:51:04.083Z,848.00
2018-10-11T06:52:01.901Z,864.00
2018-10-11T06:53:02.126Z,868.00
2018-10-11T06:54:02.436Z,876.00
2018-10-11T06:55:01.903Z,888.00
2018-10-11T06:56:01.683Z,896.00
2018-10-11T06:57:02.149Z,904.00
2018-10-11T06:58:02.417Z,916.00
2018-10-11T06:59:02.157Z,928.00
2018-10-11T07:00:02.348Z,936.00
2018-10-11T07:01:02.146Z,944.00
2018-10-11T07:02:01.976Z,956.00
2018-10-11T07:03:02.028Z,968.00
2018-10-11T07:04:02.718Z,972.00
2018-10-11T07:05:02.081Z,984.00
2018-10-11T07:06:01.921Z,996.00
2018-10-11T07:07:04.256Z,1008.00
2018-10-11T07:08:01.580Z,1020.00
2018-10-11T07:09:01.410Z,1028.00
2018-10-11T07:10:01.924Z,1040.00
2018-10-11T07:11:01.932Z,1052.00
2018-10-11T07:12:02.077Z,1060.00
2018-10-11T07:13:00.284Z,1068.00
2018-10-11T07:14:08.037Z,1080.00
2018-10-11T07:15:02.173Z,1088.00
2018-10-11T07:16:02.638Z,1096.00
2018-10-11T07:17:02.095Z,1108.00
2018-10-11T07:18:02.084Z,1116.00
2018-10-11T07:19:01.937Z,1128.00
2018-10-11T07:20:01.583Z,1140.00
2018-10-11T07:21:04.114Z,1148.00
2018-10-11T07:22:02.168Z,1164.00
2018-10-11T07:23:02.156Z,1172.00
2018-10-11T07:24:02.075Z,1180.00
2018-10-11T07:25:02.423Z,1192.00
2018-10-11T07:26:01.741Z,1200.00
2018-10-11T07:27:02.161Z,1208.00
2018-10-11T07:28:01.637Z,1220.00
2018-10-11T07:29:01.927Z,1224.00
2018-10-11T07:30:01.687Z,1240.00
2018-10-11T07:31:01.870Z,1252.00
2018-10-11T07:32:04.158Z,1260.00
2018-10-11T07:33:01.626Z,1276.00
2018-10-11T07:34:02.135Z,1284.00
2018-10-11T07:35:02.208Z,1300.00
2018-10-11T07:36:02.088Z,1308.00
2018-10-11T07:37:01.886Z,1324.00
2018-10-11T07:38:01.938Z,1332.00
2018-10-11T07:39:02.150Z,1344.00
2018-10-11T07:40:01.224Z,1356.00
2018-10-11T07:41:03.742Z,1372.00
2018-10-11T07:42:01.637Z,1380.00
2018-10-11T07:43:01.976Z,1400.00
2018-10-11T07:44:02.574Z,1412.00
2018-10-11T07:45:02.523Z,1428.00
2018-10-11T07:46:01.229Z,1440.00
2018-10-11T07:47:02.389Z,1452.00
2018-10-11T07:48:01.170Z,1464.00
2018-10-11T07:49:03.474Z,1480.00
2018-10-11T07:50:02.201Z,1492.00
2018-10-11T07:51:04.010Z,1512.00
2018-10-11T07:52:01.960Z,1528.00
2018-10-11T07:53:02.198Z,1544.00
2018-10-11T07:54:01.697Z,1556.00
2018-10-11T07:55:01.593Z,1560.00
2018-10-11T07:56:01.589Z,1576.00
2018-10-11T07:57:02.150Z,1584.00
2018-10-11T07:58:01.627Z,1596.00
2018-10-11T07:59:01.672Z,1604.00
2018-10-11T08:00:02.159Z,1612.00
2018-10-11T08:01:01.606Z,1624.00
2018-10-11T08:02:01.590Z,1636.00
2018-10-11T08:03:01.687Z,1648.00
2018-10-11T08:04:02.287Z,1660.00
2018-10-11T08:05:00.193Z,1672.00
2018-10-11T08:06:01.183Z,1684.00
2018-10-11T08:07:01.292Z,1696.00
2018-10-11T08:08:00.510Z,1704.00
2018-10-11T08:09:01.114Z,1712.00
2018-10-11T08:10:00.429Z,1720.00
2018-10-11T08:11:00.581Z,1724.00
2018-10-11T08:12:00.334Z,1736.00
2018-10-11T08:13:00.186Z,1752.00
2018-10-11T08:14:00.975Z,1772.00
2018-10-11T08:15:00.185Z,1796.00
2018-10-11T08:16:00.171Z,1812.00
2018-10-11T08:17:00.304Z,1824.00
2018-10-11T08:18:01.280Z,1836.00
2018-10-11T08:19:00.840Z,1848.00
2018-10-11T08:20:00.351Z,1868.00
2018-10-11T08:21:00.137Z,1884.00
2018-10-11T08:22:00.447Z,1900.00
2018-10-11T08:23:00.408Z,1920.00
2018-10-11T08:24:00.162Z,1932.00
2018-10-11T08:25:00.299Z,1952.00
2018-10-11T08:26:02.854Z,1964.00
2018-10-11T08:27:00.496Z,1972.00
2018-10-11T08:28:01.763Z,1992.00
2018-10-11T08:29:00.759Z,2012.00
2018-10-11T08:30:00.435Z,2032.00
2018-10-11T08:31:00.309Z,2052.00
2018-10-11T08:33:01.552Z,2088.00
2018-10-11T08:34:00.255Z,2112.00
2018-10-11T08:35:00.726Z,2136.00
2018-10-11T08:36:00.596Z,2156.00
2018-10-11T08:37:03.137Z,2176.00
2018-10-11T08:38:02.170Z,2192.00
2018-10-11T08:39:02.146Z,2204.00
2018-10-11T08:40:00.838Z,2224.00
2018-10-11T08:41:01.759Z,2248.00
2018-10-11T08:43:33.129Z,2292.00
2018-10-11T08:44:34.028Z,2312.00
2018-10-11T08:46:27.547Z,2352.00
2018-10-11T08:47:28.696Z,2380.00
2018-10-11T08:49:21.344Z,2412.00
2018-10-11T08:50:22.103Z,2420.00
2018-10-11T08:52:16.747Z,2440.00
2018-10-11T08:53:16.691Z,2456.00
2018-10-11T08:55:10.469Z,2496.00
2018-10-11T08:56:10.165Z,2512.00
2018-10-11T08:57:10.142Z,2524.00
2018-10-11T08:58:11.744Z,2536.00
2018-10-11T08:59:11.851Z,2548.00
2018-10-11T09:00:11.200Z,2560.00
2018-10-11T09:01:11.355Z,2572.00
2018-10-11T09:02:11.681Z,2588.00
2018-10-11T09:03:11.948Z,2620.00
2018-10-11T09:04:10.869Z,2628.00
2018-10-11T09:05:11.339Z,2628.00
2018-10-11T09:06:13.673Z,2648.00
2018-10-11T09:07:11.786Z,2664.00
2018-10-11T09:08:11.785Z,2684.00
2018-10-11T09:09:11.285Z,2704.00
2018-10-11T09:10:12.172Z,2720.00
2018-10-11T09:11:11.766Z,2736.00
2018-10-11T09:12:12.261Z,2748.00
2018-10-11T09:13:11.247Z,2764.00
2018-10-11T09:14:12.130Z,2788.00
2018-10-11T09:15:11.410Z,2796.00
2018-10-11T09:16:11.860Z,2816.00
2018-10-11T09:17:11.797Z,2848.00
2018-10-11T09:18:12.243Z,2884.00
2018-10-11T09:19:11.841Z,2892.00
2018-10-11T09:20:11.840Z,2940.00
2018-10-11T09:21:11.842Z,2988.00
2018-10-11T09:22:11.571Z,3012.00
2018-10-11T09:23:14.175Z,3016.00
2018-10-11T09:24:11.862Z,3024.00
2018-10-11T09:25:11.658Z,3040.00
2018-10-11T09:26:11.746Z,3076.00
2018-10-11T09:27:12.135Z,3096.00
2018-10-11T09:28:19.394Z,3128.00
2018-10-11T09:29:11.787Z,3156.00
2018-10-11T09:30:11.893Z,3172.00
2018-10-11T09:31:12.163Z,3204.00
2018-10-11T09:32:10.620Z,3244.00
2018-10-11T09:33:17.875Z,3256.00
2018-10-11T09:34:11.715Z,3260.00
2018-10-11T09:35:11.796Z,3296.00
2018-10-11T09:36:13.828Z,3352.00
2018-10-11T09:37:12.233Z,3404.00
2018-10-11T09:38:12.987Z,3436.00
2018-10-11T09:39:11.885Z,3440.00
2018-10-11T09:40:11.991Z,3456.00
2018-10-11T09:41:13.879Z,3476.00
2018-10-11T09:42:14.916Z,3504.00
2018-10-11T09:43:11.847Z,3528.00
2018-10-11T09:44:12.229Z,3564.00
2018-10-11T09:45:11.202Z,3612.00
2018-10-11T09:46:11.640Z,3644.00
2018-10-11T09:47:11.740Z,3684.00
2018-10-11T09:48:12.256Z,3720.00
2018-10-11T09:49:11.852Z,3752.00
2018-10-11T09:50:11.874Z,3780.00
2018-10-11T09:51:11.925Z,3828.00
2018-10-11T09:52:11.863Z,3888.00
2018-10-11T09:53:10.380Z,3920.00
2018-10-11T09:54:12.157Z,3988.00
2018-10-11T09:55:12.183Z,4060.00
2018-10-11T09:56:11.820Z,4084.00
2018-10-11T09:57:12.157Z,4128.00
2018-10-11T09:58:12.217Z,4164.00
2018-10-11T09:59:11.769Z,4212.00
2018-10-11T10:00:11.892Z,4236.00
2018-10-11T10:01:11.413Z,4256.00
2018-10-11T10:02:11.350Z,4308.00
2018-10-11T10:03:11.708Z,4340.00
2018-10-11T10:04:11.875Z,4364.00
2018-10-11T10:05:11.447Z,4364.00
2018-10-11T10:06:12.043Z,4384.00
2018-10-11T10:07:11.851Z,4480.00
2018-10-11T10:08:11.877Z,4576.00
2018-10-11T10:09:12.169Z,4652.00
2018-10-11T10:10:11.903Z,4636.00
2018-10-11T10:11:11.832Z,4760.00
2018-10-11T10:12:11.807Z,5288.00
2018-10-11T10:13:12.257Z,7016.00
2018-10-11T10:14:14.147Z,10268.00
2018-10-11T10:15:11.848Z,13760.00
2018-10-11T10:16:14.769Z,16224.00
2018-10-11T10:17:11.331Z,17376.00
2018-10-11T10:18:11.890Z,17952.00
2018-10-11T10:19:12.174Z,18272.00
2018-10-11T10:20:12.160Z,18496.00
2018-10-11T10:21:11.938Z,18784.00
2018-10-11T10:22:12.311Z,19072.00
2018-10-11T10:23:12.151Z,18880.00
2018-10-11T10:24:10.060Z,18912.00
2018-10-11T10:25:12.935Z,19072.00
2018-10-11T10:26:11.566Z,19328.00
2018-10-11T10:27:11.923Z,19776.00
2018-10-11T10:28:11.860Z,21120.00
2018-10-11T10:29:12.154Z,21984.00
2018-10-11T10:30:11.319Z,21824.00
2018-10-11T10:31:11.883Z,21472.00
2018-10-11T10:32:11.873Z,21856.00
2018-10-11T10:33:11.707Z,22016.00
2018-10-11T10:34:12.200Z,22624.00
2018-10-11T10:35:11.923Z,22848.00
2018-10-11T10:36:12.247Z,23040.00
2018-10-11T10:37:11.310Z,23072.00
2018-10-11T10:38:11.320Z,23136.00
2018-10-11T10:39:11.371Z,22976.00
2018-10-11T10:40:12.177Z,23040.00
2018-10-11T10:41:11.617Z,23072.00
2018-10-11T10:42:12.171Z,23488.00
2018-10-11T10:43:12.367Z,23328.00
2018-10-11T10:44:11.877Z,23072.00
2018-10-11T10:45:11.137Z,22944.00
2018-10-11T10:46:11.672Z,22976.00
2018-10-11T10:47:12.309Z,22432.00
2018-10-11T10:48:11.834Z,22240.00
2018-10-11T10:49:11.823Z,22112.00
2018-10-11T10:50:12.215Z,22048.00
2018-10-11T10:51:12.317Z,22144.00
2018-10-11T10:52:13.921Z,21888.00
2018-10-11T10:53:13.897Z,21696.00
2018-10-11T10:54:11.925Z,21920.00
2018-10-11T10:55:11.835Z,22336.00
2018-10-11T10:56:11.899Z,22880.00
2018-10-11T10:57:11.309Z,22976.00
2018-10-11T10:58:11.900Z,23456.00
2018-10-11T10:59:11.808Z,24128.00
2018-10-11T11:00:11.693Z,24800.00
2018-10-11T11:01:14.351Z,25088.00
2018-10-11T11:02:11.930Z,24864.00
2018-10-11T11:03:11.916Z,24512.00
2018-10-11T11:04:11.919Z,23072.00
2018-10-11T11:05:12.203Z,23392.00
2018-10-11T11:06:11.864Z,23616.00
2018-10-11T11:07:13.052Z,23584.00
2018-10-11T11:08:12.387Z,23584.00
2018-10-11T11:09:13.836Z,23392.00
2018-10-11T11:10:12.406Z,22368.00
2018-10-11T11:11:12.344Z,22592.00
2018-10-11T11:12:12.066Z,21088.00
2018-10-11T11:13:12.376Z,19456.00
2018-10-11T11:14:12.334Z,23328.00
2018-10-11T11:15:11.905Z,25760.00
2018-10-11T11:16:11.839Z,26016.00
2018-10-11T11:17:11.439Z,25536.00
2018-10-11T11:18:13.896Z,18784.00
2018-10-11T11:19:12.223Z,26912.00
2018-10-11T11:20:11.843Z,31616.00
2018-10-11T11:21:12.354Z,36448.00
2018-10-11T11:22:12.466Z,54368.00
2018-10-11T11:23:12.396Z,84800.00
2018-10-11T11:24:12.282Z,82048.00
2018-10-11T11:25:12.368Z,68672.00
2018-10-11T11:26:12.696Z,74240.00
2018-10-11T11:27:12.434Z,67488.00
2018-10-11T11:28:12.375Z,63936.00
2018-10-11T11:29:12.400Z,64544.00
2018-10-11T11:30:12.356Z,63168.00
2018-10-11T11:31:12.443Z,63200.00
2018-10-11T11:32:12.257Z,65568.00
2018-10-11T11:33:12.721Z,62176.00
2018-10-11T11:34:12.237Z,54176.00
2018-10-11T11:35:12.361Z,52608.00
2018-10-11T11:36:12.408Z,51296.00
2018-10-11T11:37:12.794Z,55360.00
2018-10-11T11:38:12.599Z,61344.00
2018-10-11T11:39:14.105Z,62560.00
2018-10-11T11:40:12.444Z,62208.00
2018-10-11T11:41:12.364Z,57856.00
2018-10-11T11:42:12.364Z,53568.00
2018-10-11T11:43:12.374Z,47648.00
2018-10-11T11:44:12.362Z,51072.00
2018-10-11T11:45:12.464Z,50240.00
2018-10-11T11:46:11.768Z,53568.00
2018-10-11T11:47:12.433Z,48960.00
2018-10-11T11:48:14.967Z,50048.00
2018-10-11T11:49:12.021Z,61408.00
2018-10-11T11:50:12.471Z,62752.00
2018-10-11T11:51:12.785Z,70592.00
2018-10-11T11:52:12.489Z,74560.00
2018-10-11T11:53:12.516Z,72480.00
2018-10-11T11:54:13.364Z,60000.00
2018-10-11T11:55:12.921Z,51040.00
2018-10-11T11:56:12.451Z,59968.00
2018-10-11T11:57:12.452Z,66432.00
2018-10-11T11:58:12.926Z,76224.00
2018-10-11T11:59:14.770Z,70784.00
2018-10-11T12:00:14.602Z,71264.00
2018-10-11T12:01:14.958Z,71040.00
2018-10-11T12:02:13.482Z,70112.00
2018-10-11T12:03:12.974Z,66624.00
2018-10-11T12:04:12.725Z,62944.00
2018-10-11T12:05:12.727Z,52512.00
2018-10-11T12:06:13.330Z,42688.00
2018-10-11T12:07:13.293Z,57536.00
2018-10-11T12:08:13.439Z,65856.00
2018-10-11T12:09:12.976Z,65024.00
2018-10-11T12:10:12.887Z,60736.00
2018-10-11T12:11:12.933Z,68032.00
2018-10-11T12:12:12.983Z,67328.00
2018-10-11T12:13:12.981Z,65440.00
2018-10-11T12:14:13.036Z,63520.00
2018-10-11T12:15:13.016Z,45824.00
2018-10-11T12:16:13.131Z,36320.00
2018-10-11T12:17:12.955Z,40576.00
2018-10-11T12:18:12.883Z,54976.00
2018-10-11T12:19:12.883Z,64896.00
2018-10-11T12:20:12.887Z,63488.00
2018-10-11T12:21:12.883Z,65280.00
2018-10-11T12:22:12.970Z,73472.00
2018-10-11T12:23:12.892Z,71136.00
2018-10-11T12:24:12.888Z,65472.00
2018-10-11T12:25:13.039Z,70208.00
2018-10-11T12:26:13.300Z,69920.00
2018-10-11T12:27:13.368Z,66592.00
2018-10-11T12:28:13.478Z,65632.00
2018-10-11T12:29:12.880Z,66464.00
2018-10-11T12:30:12.951Z,61184.00
2018-10-11T12:31:13.397Z,66816.00
2018-10-11T12:32:15.017Z,65824.00
2018-10-11T12:33:12.394Z,61952.00
2018-10-11T12:34:12.673Z,56000.00
2018-10-11T12:35:13.832Z,61952.00
2018-10-11T12:36:11.846Z,65376.00
2018-10-11T12:37:12.752Z,61504.00
2018-10-11T12:38:11.583Z,65120.00
2018-10-11T12:39:11.527Z,69824.00
2018-10-11T12:40:11.839Z,68768.00
2018-10-11T12:41:11.565Z,63520.00
2018-10-11T12:42:12.757Z,60960.00
2018-10-11T12:43:12.361Z,61312.00
2018-10-11T12:44:12.744Z,63904.00
2018-10-11T12:45:12.271Z,62400.00
2018-10-11T12:46:12.808Z,61120.00
2018-10-11T12:47:12.861Z,59328.00
2018-10-11T12:48:11.720Z,55296.00
2018-10-11T12:49:11.725Z,61216.00
2018-10-11T12:50:12.999Z,58464.00